Time;durP1;ratioP1;P1;durP2;ratioP2;P2;SDS_P1;SDS_P2;PMS_P1;PMS_P2;Temp;Humidity;BMP_temperature;BMP_pressure;BME280_temperature;BME280_humidity;BME280_pressure;Samples;Min_cycle;Max_cycle;Signal;HPM_P1;HPM_P2
2022/04/07 00:00:21;;;;;;;6.40;4.32;;;;;;;6.63;100.00;94674.13;5023618;28;20053;-70
2022/04/07 00:02:47;;;;;;;10.73;4.22;;;;;;;6.68;100.00;94695.34;5027013;28;20044;-71
2022/04/07 00:05:13;;;;;;;10.40;4.10;;;;;;;6.71;100.00;94686.88;5025500;28;20040;-68
2022/04/07 00:07:38;;;;;;;5.88;2.67;;;;;;;6.67;100.00;94696.44;5024750;28;20559;-70
2022/04/07 00:10:04;;;;;;;9.23;3.33;;;;;;;6.64;100.00;94673.03;5022677;28;20482;-70
2022/04/07 00:12:32;;;;;;;7.97;4.15;;;;;;;6.53;100.00;94676.75;5024694;28;20124;-70
2022/04/07 00:14:59;;;;;;;9.27;4.63;;;;;;;6.54;100.00;94679.16;5023757;28;20318;-70
2022/04/07 00:17:26;;;;;;;11.02;4.32;;;;;;;6.53;100.00;94668.78;5026875;28;20094;-69
2022/04/07 00:19:51;;;;;;;6.30;3.45;;;;;;;6.57;100.00;94691.13;5027197;28;20037;-69
2022/04/07 00:22:17;;;;;;;6.68;3.83;;;;;;;6.63;100.00;94674.91;5024312;28;20206;-68
2022/04/07 00:24:43;;;;;;;11.00;4.95;;;;;;;6.64;100.00;94687.13;5025981;28;20086;-69
2022/04/07 00:27:09;;;;;;;10.25;4.63;;;;;;;6.65;100.00;94669.31;5022937;28;20041;-69
2022/04/07 00:29:34;;;;;;;7.50;3.13;;;;;;;6.62;100.00;94670.66;5025203;28;20052;-68
2022/04/07 00:32:03;;;;;;;9.13;3.97;;;;;;;6.70;100.00;94666.66;5025599;28;20456;-69
2022/04/07 00:34:29;;;;;;;4.75;2.65;;;;;;;6.68;100.00;94652.81;5024858;28;20041;-70
2022/04/07 00:36:55;;;;;;;11.75;3.60;;;;;;;6.67;100.00;94656.56;5025483;28;20547;-69
2022/04/07 00:39:20;;;;;;;8.43;3.17;;;;;;;6.65;100.00;94648.06;5022597;28;20362;-68
2022/04/07 00:41:46;;;;;;;10.00;5.00;;;;;;;6.69;100.00;94644.59;5025204;28;20582;-72
2022/04/07 00:44:12;;;;;;;8.32;4.38;;;;;;;6.65;100.00;94629.44;5025545;28;20045;-70
2022/04/07 00:46:38;;;;;;;8.10;3.63;;;;;;;6.70;100.00;94629.47;5026586;28;20110;-69
2022/04/07 00:49:05;;;;;;;8.52;4.18;;;;;;;6.74;100.00;94635.03;5023599;28;20041;-70
2022/04/07 00:51:31;;;;;;;5.47;3.40;;;;;;;6.61;100.00;94634.50;5024223;28;20041;-69
2022/04/07 00:53:57;;;;;;;6.82;3.20;;;;;;;6.66;100.00;94625.72;5025337;28;20068;-70
2022/04/07 00:56:24;;;;;;;8.82;4.30;;;;;;;6.72;100.00;94627.31;5023863;28;20125;-69
2022/04/07 00:58:49;;;;;;;9.13;3.33;;;;;;;6.72;100.00;94632.63;5024717;28;20071;-68
2022/04/07 01:01:20;;;;;;;6.35;2.78;;;;;;;6.68;100.00;94612.97;5023072;28;20061;-69
2022/04/07 01:03:47;;;;;;;8.43;3.38;;;;;;;6.62;100.00;94622.03;5025044;28;20124;-69
2022/04/07 01:06:13;;;;;;;6.55;3.78;;;;;;;6.60;100.00;94602.88;5023952;28;20028;-69
2022/04/07 01:08:38;;;;;;;8.82;3.70;;;;;;;6.54;100.00;94594.13;5024582;28;20063;-70
2022/04/07 01:11:04;;;;;;;4.70;2.67;;;;;;;6.56;100.00;94596.50;5024934;28;20218;-69
2022/04/07 01:14:02;;;;;;;8.38;4.03;;;;;;;6.50;100.00;94603.69;5025498;28;20060;-69
2022/04/07 01:16:28;;;;;;;8.15;3.90;;;;;;;6.58;100.00;94605.81;4992416;28;20511;-68
2022/04/07 01:18:55;;;;;;;14.43;4.40;;;;;;;6.49;100.00;94612.72;5022141;28;20095;-70
2022/04/07 01:21:21;;;;;;;6.78;3.75;;;;;;;6.54;100.00;94611.94;5024838;28;21510;-68
2022/04/07 01:24:02;;;;;;;8.02;3.40;;;;;;;6.50;100.00;94601.03;5024580;28;20041;-70
2022/04/07 01:26:38;;;;;;;13.95;4.55;;;;;;;6.47;100.00;94603.44;5026859;28;20434;-68
2022/04/07 01:29:06;;;;;;;8.52;3.72;;;;;;;6.32;100.00;94605.03;5020103;28;20764;-69
2022/04/07 01:31:32;;;;;;;5.75;3.15;;;;;;;6.24;100.00;94586.19;5021508;28;20048;-68
2022/04/07 01:33:58;;;;;;;14.63;3.92;;;;;;;6.27;100.00;94589.09;5024225;28;20191;-68
2022/04/07 01:36:29;;;;;;;7.45;3.42;;;;;;;6.30;100.00;94596.53;5024601;28;20029;-69
2022/04/07 01:38:56;;;;;;;6.18;3.40;;;;;;;6.34;100.00;94599.44;5027026;28;20045;-69
2022/04/07 01:41:22;;;;;;;9.82;4.43;;;;;;;6.26;100.00;94589.38;5021918;28;20045;-69
2022/04/07 01:43:50;;;;;;;9.65;4.47;;;;;;;6.20;100.00;94588.56;5025628;28;20459;-69
2022/04/07 01:46:17;;;;;;;10.80;3.63;;;;;;;6.21;100.00;94590.16;5029588;28;20383;-68
2022/04/07 01:48:44;;;;;;;5.75;3.05;;;;;;;6.17;100.00;94593.63;5025316;28;20065;-70
2022/04/07 01:51:10;;;;;;;5.25;2.80;;;;;;;6.03;100.00;94599.44;5024843;28;20049;-69
2022/04/07 01:53:37;;;;;;;2.78;1.10;;;;;;;6.06;100.00;94585.63;5026844;28;20057;-70
2022/04/07 01:56:04;;;;;;;2.20;1.15;;;;;;;5.84;100.00;94567.28;5024530;28;20528;-69
2022/04/07 01:58:29;;;;;;;3.20;1.63;;;;;;;5.91;100.00;94553.75;5023442;28;20091;-70
2022/04/07 02:00:55;;;;;;;3.70;1.52;;;;;;;5.95;100.00;94565.47;5021421;28;20140;-70
2022/04/07 02:03:21;;;;;;;3.63;1.20;;;;;;;5.98;100.00;94553.50;5022471;28;20459;-68
2022/04/07 02:05:46;;;;;;;2.78;1.10;;;;;;;5.98;100.00;94548.19;5023667;28;20050;-69
2022/04/07 02:08:12;;;;;;;2.40;1.00;;;;;;;5.99;100.00;94552.44;5023721;28;20062;-70
2022/04/07 02:10:37;;;;;;;4.22;1.10;;;;;;;5.98;100.00;94553.50;5023230;28;20364;-69
2022/04/07 02:13:03;;;;;;;1.70;0.77;;;;;;;5.99;100.00;94553.25;5023147;28;20042;-70
2022/04/07 02:15:28;;;;;;;4.35;1.60;;;;;;;5.97;100.00;94557.22;5021360;28;20033;-70
2022/04/07 02:17:54;;;;;;;3.60;1.48;;;;;;;6.00;100.00;94568.13;5022127;28;20057;-68
2022/04/07 02:20:20;;;;;;;4.72;1.50;;;;;;;6.00;100.00;94567.31;5023356;28;20037;-69
2022/04/07 02:22:45;;;;;;;2.88;1.33;;;;;;;5.95;100.00;94530.16;5024959;28;20508;-68
2022/04/07 02:25:11;;;;;;;1.85;0.93;;;;;;;5.64;100.00;94521.34;5027444;28;20120;-70
2022/04/07 02:27:38;;;;;;;5.63;1.70;;;;;;;5.65;100.00;94517.63;5023316;28;20346;-68
2022/04/07 02:30:07;;;;;;;4.30;2.35;;;;;;;5.62;100.00;94526.91;5053321;28;20033;-69
2022/04/07 02:32:32;;;;;;;4.82;2.80;;;;;;;5.66;100.00;94529.81;5004941;28;20045;-70
2022/04/07 02:34:58;;;;;;;6.28;2.80;;;;;;;5.73;100.00;94530.38;5006501;28;20114;-70
2022/04/07 02:37:25;;;;;;;7.53;2.70;;;;;;;5.81;100.00;94537.81;5001560;28;20038;-69
2022/04/07 02:39:52;;;;;;;5.07;2.70;;;;;;;5.83;100.00;94525.84;5004900;28;20040;-69
2022/04/07 02:42:18;;;;;;;3.67;1.83;;;;;;;5.85;100.00;94523.75;5003237;28;20041;-69
2022/04/07 02:44:43;;;;;;;5.22;2.60;;;;;;;5.94;100.00;94531.22;5004218;28;20103;-70
2022/04/07 02:47:08;;;;;;;3.22;1.65;;;;;;;6.01;100.00;94531.75;5003364;28;20037;-69
2022/04/07 02:49:34;;;;;;;4.28;2.20;;;;;;;5.94;100.00;94518.72;5003691;28;20042;-68
2022/04/07 02:51:59;;;;;;;5.88;3.05;;;;;;;5.98;100.00;94524.28;5002258;28;20045;-69
2022/04/07 02:54:25;;;;;;;4.55;2.50;;;;;;;5.94;100.00;94520.59;5004276;28;20040;-69
2022/04/07 02:56:50;;;;;;;5.25;2.95;;;;;;;5.95;100.00;94517.66;4999798;28;20034;-69
2022/04/07 02:59:15;;;;;;;5.50;2.85;;;;;;;6.00;100.00;94515.03;5007882;28;20030;-68
2022/04/07 03:01:42;;;;;;;3.10;1.48;;;;;;;6.05;100.00;94515.00;5016920;28;20048;-71
2022/04/07 03:04:07;;;;;;;2.83;1.55;;;;;;;5.93;100.00;94501.22;5025937;28;20033;-69
2022/04/07 03:06:32;;;;;;;5.47;2.47;;;;;;;5.92;100.00;94493.53;5026810;28;20389;-70
2022/04/07 03:08:58;;;;;;;2.40;1.50;;;;;;;5.90;100.00;94482.31;5027976;28;20056;-69
2022/04/07 03:11:23;;;;;;;3.47;2.20;;;;;;;5.93;100.00;94484.50;5024524;28;20136;-68
2022/04/07 03:13:49;;;;;;;4.28;2.05;;;;;;;5.97;100.00;94490.84;5027476;28;20042;-69
2022/04/07 03:16:17;;;;;;;4.85;2.38;;;;;;;5.94;100.00;94475.47;5024247;28;20052;-69
2022/04/07 03:18:42;;;;;;;6.53;3.08;;;;;;;5.98;100.00;94477.31;5025496;28;20602;-68
2022/04/07 03:21:08;;;;;;;5.55;2.22;;;;;;;5.98;100.00;94471.19;5027509;28;20244;-71
2022/04/07 03:23:33;;;;;;;5.22;2.05;;;;;;;5.91;100.00;94471.47;5025261;28;20547;-68
2022/04/07 03:26:01;;;;;;;6.57;2.80;;;;;;;5.97;100.00;94467.75;5024994;28;20854;-69
2022/04/07 03:28:26;;;;;;;6.43;2.30;;;;;;;5.99;100.00;94465.66;5026233;28;20242;-69
2022/04/07 03:30:52;;;;;;;4.97;1.77;;;;;;;6.01;100.00;94462.72;5023756;28;20349;-68
2022/04/07 03:33:17;;;;;;;5.22;2.33;;;;;;;5.91;100.00;94457.41;5025868;28;20139;-69
2022/04/07 03:35:42;;;;;;;3.17;1.85;;;;;;;5.92;100.00;94459.00;5024025;28;20072;-69
2022/04/07 03:38:08;;;;;;;3.97;2.45;;;;;;;6.00;100.00;94453.97;5023487;28;20068;-70
2022/04/07 03:40:35;;;;;;;3.55;2.05;;;;;;;6.01;100.00;94447.56;5027725;28;20495;-70
2022/04/07 03:43:03;;;;;;;4.65;2.33;;;;;;;5.93;100.00;94439.38;5024011;28;20091;-69
2022/04/07 03:45:30;;;;;;;5.13;2.60;;;;;;;5.98;100.00;94452.59;5023214;28;20335;-69
2022/04/07 03:47:55;;;;;;;4.95;2.67;;;;;;;6.03;100.00;94429.50;5026260;28;20094;-69
2022/04/07 03:50:21;;;;;;;6.65;2.63;;;;;;;6.05;100.00;94442.50;5024187;28;20274;-69
2022/04/07 03:52:46;;;;;;;6.13;2.72;;;;;;;6.01;100.00;94436.16;5026782;28;20056;-70
2022/04/07 03:55:11;;;;;;;5.55;2.60;;;;;;;6.06;100.00;94423.66;5025376;28;20094;-69
2022/04/07 03:57:37;;;;;;;5.40;2.55;;;;;;;6.06;100.00;94412.22;5026218;28;20043;-71
2022/04/07 04:00:04;;;;;;;5.82;2.60;;;;;;;6.04;100.00;94427.66;5023795;28;20120;-68
2022/04/07 04:02:37;;;;;;;4.72;1.55;;;;;;;6.02;100.00;94409.34;5028399;28;20337;-69
2022/04/07 04:05:03;;;;;;;3.92;1.98;;;;;;;5.96;100.00;94401.66;5025567;28;20135;-68
2022/04/07 04:07:29;;;;;;;4.03;2.03;;;;;;;5.96;100.00;94415.72;5025383;28;20048;-69
2022/04/07 04:09:54;;;;;;;7.05;2.22;;;;;;;5.99;100.00;94409.06;5024075;28;20098;-68
2022/04/07 04:12:19;;;;;;;3.30;1.85;;;;;;;6.02;100.00;94405.88;5022999;28;20048;-72
2022/04/07 04:14:45;;;;;;;5.10;2.20;;;;;;;6.00;100.00;94398.19;5025459;28;20044;-69
2022/04/07 04:17:10;;;;;;;4.88;2.38;;;;;;;6.05;100.00;94386.75;5022881;28;20041;-70
2022/04/07 04:19:36;;;;;;;5.80;1.70;;;;;;;6.00;100.00;94392.09;5024613;28;20045;-70
2022/04/07 04:22:01;;;;;;;3.63;2.08;;;;;;;6.02;100.00;94387.31;5024988;28;20638;-71
2022/04/07 04:24:27;;;;;;;3.83;1.92;;;;;;;6.04;100.00;94395.78;5024525;28;20037;-71
2022/04/07 04:26:52;;;;;;;6.22;2.10;;;;;;;6.11;100.00;94393.66;5025734;28;20254;-69
2022/04/07 04:29:18;;;;;;;4.00;2.28;;;;;;;6.13;100.00;94397.63;5025595;28;20160;-69
2022/04/07 04:31:43;;;;;;;3.90;2.10;;;;;;;6.10;100.00;94392.84;5023978;28;20091;-69
2022/04/07 04:34:09;;;;;;;3.60;2.03;;;;;;;6.10;100.00;94362.84;5027269;28;20115;-69
2022/04/07 04:36:35;;;;;;;7.07;2.67;;;;;;;6.09;100.00;94372.69;5023625;28;20033;-70
2022/04/07 04:39:00;;;;;;;3.67;2.13;;;;;;;6.13;100.00;94354.34;5026569;28;20076;-70
2022/04/07 04:41:26;;;;;;;4.88;1.65;;;;;;;6.04;100.00;94337.38;5027307;28;20095;-69
2022/04/07 04:43:52;;;;;;;4.05;2.40;;;;;;;6.03;100.00;94347.19;5024441;28;20064;-69
2022/04/07 04:46:18;;;;;;;5.57;2.53;;;;;;;6.05;100.00;94345.06;5023270;28;20072;-69
2022/04/07 04:48:43;;;;;;;6.35;2.90;;;;;;;6.00;100.00;94334.47;5025639;28;21485;-71
2022/04/07 04:51:09;;;;;;;4.95;3.15;;;;;;;6.04;100.00;94355.97;5023246;28;20549;-71
2022/04/07 04:53:35;;;;;;;5.65;2.75;;;;;;;5.98;100.00;94339.25;5023077;28;20507;-70
2022/04/07 04:56:00;;;;;;;7.53;2.85;;;;;;;6.04;100.00;94348.00;5023510;28;20042;-69
2022/04/07 04:58:25;;;;;;;6.88;3.38;;;;;;;6.10;100.00;94334.44;5024712;28;20048;-68
2022/04/07 05:00:51;;;;;;;5.20;2.85;;;;;;;6.03;100.00;94338.44;5024590;28;20594;-69
2022/04/07 05:03:17;;;;;;;5.80;3.15;;;;;;;6.06;100.00;94328.06;5026208;28;20117;-69
2022/04/07 05:05:42;;;;;;;4.50;2.33;;;;;;;6.00;100.00;94317.75;5026332;28;20476;-68
2022/04/07 05:08:08;;;;;;;7.88;2.45;;;;;;;5.98;100.00;94320.66;5022935;28;20037;-69
2022/04/07 05:10:34;;;;;;;5.53;2.28;;;;;;;6.06;100.00;94317.44;5024270;28;20452;-68
2022/04/07 05:12:59;;;;;;;6.38;2.58;;;;;;;5.99;100.00;94316.16;5025374;28;20057;-70
2022/04/07 05:15:25;;;;;;;5.22;3.15;;;;;;;6.06;100.00;94306.03;5024783;28;20045;-70
2022/04/07 05:17:51;;;;;;;5.47;1.90;;;;;;;6.02;100.00;94311.09;5025359;28;20044;-69
2022/04/07 05:20:17;;;;;;;5.00;2.35;;;;;;;6.02;100.00;94315.63;5023019;28;20483;-69
2022/04/07 05:22:43;;;;;;;7.93;3.33;;;;;;;6.06;100.00;94304.16;5023616;28;20046;-69
2022/04/07 05:25:09;;;;;;;8.55;2.50;;;;;;;6.07;100.00;94291.69;5022514;28;20069;-69
2022/04/07 05:27:36;;;;;;;6.32;2.00;;;;;;;6.02;100.00;94294.38;5023882;28;20041;-69
2022/04/07 05:30:06;;;;;;;3.35;1.85;;;;;;;6.01;100.00;94303.41;5022245;28;20354;-69
2022/04/07 05:32:31;;;;;;;6.53;2.65;;;;;;;6.08;100.00;94280.81;5022935;28;20055;-69
2022/04/07 05:34:57;;;;;;;4.53;2.30;;;;;;;6.07;100.00;94265.13;5023957;28;20049;-70
2022/04/07 05:37:24;;;;;;;5.18;2.65;;;;;;;6.15;100.00;94272.56;5024863;28;20480;-69
2022/04/07 05:39:51;;;;;;;10.25;2.35;;;;;;;6.19;100.00;94276.25;5024473;28;20037;-70
2022/04/07 05:42:18;;;;;;;4.20;1.95;;;;;;;6.11;100.00;94266.19;5024332;28;20052;-70
2022/04/07 05:44:46;;;;;;;4.70;2.53;;;;;;;6.17;100.00;94249.16;5024336;28;20041;-70
2022/04/07 05:47:12;;;;;;;4.32;2.20;;;;;;;6.13;100.00;94234.84;5025438;28;20041;-70
2022/04/07 05:49:37;;;;;;;4.50;1.85;;;;;;;6.13;100.00;94254.22;5021795;28;20532;-69
2022/04/07 05:52:04;;;;;;;4.85;1.95;;;;;;;6.12;100.00;94215.47;5021457;28;20081;-70
2022/04/07 05:54:34;;;;;;;3.00;1.60;;;;;;;6.11;100.00;94219.19;5031714;28;20091;-70
2022/04/07 05:56:59;;;;;;;5.20;2.08;;;;;;;6.18;100.00;94215.44;5023605;28;20036;-70
2022/04/07 05:59:25;;;;;;;5.07;1.63;;;;;;;6.17;100.00;94232.44;5023580;28;20048;-69
2022/04/07 06:01:50;;;;;;;15.30;1.73;;;;;;;6.20;100.00;94200.00;5023359;28;20053;-69
2022/04/07 06:04:16;;;;;;;3.90;2.03;;;;;;;6.19;100.00;94215.16;5056013;28;20048;-70
2022/04/07 06:06:42;;;;;;;3.50;1.50;;;;;;;6.18;100.00;94210.13;5022142;28;20301;-70
2022/04/07 06:09:07;;;;;;;3.20;1.50;;;;;;;6.18;100.00;94189.66;5026169;28;20053;-70
2022/04/07 06:11:33;;;;;;;2.78;1.15;;;;;;;6.19;100.00;94204.53;5024699;28;20044;-70
2022/04/07 06:13:59;;;;;;;5.80;2.08;;;;;;;6.23;100.00;94205.59;5024018;28;20087;-70
2022/04/07 06:16:24;;;;;;;5.28;1.90;;;;;;;6.19;100.00;94188.59;5023784;28;20658;-69
2022/04/07 06:18:51;;;;;;;9.27;2.33;;;;;;;6.24;100.00;94182.47;5026012;28;20240;-70
2022/04/07 06:21:17;;;;;;;4.50;1.80;;;;;;;6.25;100.00;94171.56;5027321;28;20465;-70
2022/04/07 06:23:42;;;;;;;4.05;1.50;;;;;;;6.30;100.00;94157.44;5024579;28;20296;-69
2022/04/07 06:26:08;;;;;;;5.60;1.98;;;;;;;6.28;100.00;94157.72;5024595;28;20601;-70
2022/04/07 06:28:33;;;;;;;4.38;1.67;;;;;;;6.28;100.00;94148.97;5024531;28;20049;-69
2022/04/07 06:30:59;;;;;;;2.92;1.42;;;;;;;6.22;100.00;94166.00;5019641;28;20068;-69
2022/04/07 06:33:24;;;;;;;2.97;1.20;;;;;;;5.97;100.00;94161.66;5025293;28;20037;-70
2022/04/07 06:35:51;;;;;;;7.50;1.83;;;;;;;5.79;100.00;94158.53;5028441;28;20611;-71
2022/04/07 06:38:17;;;;;;;6.40;2.45;;;;;;;5.75;100.00;94156.69;5025788;28;20159;-69
2022/04/07 06:40:43;;;;;;;5.15;1.92;;;;;;;5.77;100.00;94147.41;5027586;28;20044;-69
2022/04/07 06:43:08;;;;;;;2.88;1.60;;;;;;;5.71;100.00;94185.66;5026971;28;20049;-70
2022/04/07 06:45:34;;;;;;;3.55;1.80;;;;;;;5.71;100.00;94148.50;5026941;28;20041;-70
2022/04/07 06:47:59;;;;;;;2.85;1.05;;;;;;;5.71;100.00;94158.31;5027628;28;20041;-69
2022/04/07 06:50:25;;;;;;;3.63;1.52;;;;;;;5.75;100.00;94140.78;5024584;28;20052;-70
2022/04/07 06:52:52;;;;;;;4.53;1.35;;;;;;;5.80;100.00;94130.94;5025949;28;20133;-70
2022/04/07 06:55:18;;;;;;;4.38;1.83;;;;;;;5.83;100.00;94122.41;5027661;28;20115;-69
2022/04/07 06:57:51;;;;;;;3.60;1.40;;;;;;;5.90;100.00;94132.72;5027145;28;20463;-70
2022/04/07 07:00:18;;;;;;;2.28;0.47;;;;;;;5.94;100.00;94117.09;5026955;28;20436;-69
2022/04/07 07:02:54;;;;;;;1.05;0.50;;;;;;;6.01;100.00;94112.25;5028563;28;20044;-70
2022/04/07 07:05:25;;;;;;;5.05;1.17;;;;;;;6.06;100.00;94105.03;5028427;28;20036;-70
2022/04/07 07:07:53;;;;;;;1.15;0.63;;;;;;;6.06;100.00;94067.06;5030279;28;20036;-69
2022/04/07 07:10:24;;;;;;;1.30;0.63;;;;;;;6.07;100.00;94089.88;5032549;28;20106;-69
2022/04/07 07:12:50;;;;;;;1.27;0.60;;;;;;;6.10;100.00;94076.06;5042601;28;20449;-70
2022/04/07 07:15:16;;;;;;;1.98;0.80;;;;;;;6.17;100.00;94081.88;5027776;28;20107;-69
2022/04/07 07:17:41;;;;;;;1.73;0.70;;;;;;;6.27;100.00;94075.66;5029360;28;20578;-70
2022/04/07 07:20:12;;;;;;;1.83;0.75;;;;;;;6.33;100.00;94072.69;5060207;28;20049;-69
2022/04/07 07:22:38;;;;;;;4.25;1.05;;;;;;;6.31;100.00;94087.34;5029560;28;20582;-68
2022/04/07 07:25:05;;;;;;;2.10;0.95;;;;;;;6.38;100.00;94059.38;5028298;28;20402;-69
2022/04/07 07:27:41;;;;;;;7.10;1.02;;;;;;;6.49;100.00;94062.72;5027178;28;20515;-69
2022/04/07 07:30:09;;;;;;;1.63;0.63;;;;;;;6.50;100.00;94034.28;5025201;28;20091;-70
2022/04/07 07:32:36;;;;;;;2.83;1.00;;;;;;;6.41;100.00;94036.75;5026226;28;20603;-69
2022/04/07 07:35:03;;;;;;;0.93;0.43;;;;;;;6.37;100.00;94015.25;5026163;28;20309;-70
2022/04/07 07:37:28;;;;;;;0.75;0.40;;;;;;;6.36;100.00;94019.00;5025484;28;20044;-69
2022/04/07 07:39:53;;;;;;;1.63;0.60;;;;;;;6.39;100.00;94007.84;5025993;28;20048;-68
2022/04/07 07:42:19;;;;;;;1.40;0.50;;;;;;;6.38;100.00;93995.63;5024055;28;20264;-69
2022/04/07 07:44:44;;;;;;;1.65;0.50;;;;;;;6.38;100.00;94013.41;5026625;28;20103;-69
2022/04/07 07:47:10;;;;;;;2.20;0.50;;;;;;;6.43;100.00;93984.94;5024341;28;20535;-70
2022/04/07 07:49:35;;;;;;;0.90;0.40;;;;;;;6.45;100.00;93995.25;5027422;28;20090;-69
2022/04/07 07:52:02;;;;;;;2.03;0.55;;;;;;;6.45;100.00;93978.53;5028925;28;20056;-70
2022/04/07 07:54:27;;;;;;;2.65;0.80;;;;;;;6.31;100.00;93957.97;5029013;28;20365;-69
2022/04/07 07:56:53;;;;;;;1.15;0.50;;;;;;;6.20;100.00;93961.00;5026943;28;20478;-69
2022/04/07 07:59:20;;;;;;;3.55;0.70;;;;;;;6.26;100.00;93936.78;5032126;28;20048;-70
2022/04/07 08:01:46;;;;;;;1.95;0.50;;;;;;;6.13;100.00;93942.75;5027292;28;20483;-69
2022/04/07 08:04:12;;;;;;;4.13;0.80;;;;;;;6.07;100.00;93919.97;5030637;28;20044;-70
2022/04/07 08:06:39;;;;;;;1.17;0.40;;;;;;;6.02;100.00;93946.59;5028714;28;20045;-69
2022/04/07 08:09:05;;;;;;;4.50;0.77;;;;;;;6.04;100.00;93937.25;5026266;28;20509;-69
2022/04/07 08:11:30;;;;;;;1.55;0.60;;;;;;;6.05;100.00;93924.78;5027239;28;20033;-69
2022/04/07 08:13:56;;;;;;;0.70;0.40;;;;;;;6.07;100.00;93926.09;5027728;28;20047;-70
2022/04/07 08:16:21;;;;;;;7.25;0.50;;;;;;;6.12;100.00;93906.66;5027464;28;20040;-70
2022/04/07 08:18:46;;;;;;;2.00;0.52;;;;;;;6.26;100.00;93912.88;5027761;28;20060;-68
2022/04/07 08:21:12;;;;;;;1.13;0.60;;;;;;;6.33;100.00;93894.75;5026969;28;20049;-69
2022/04/07 08:23:37;;;;;;;1.13;0.50;;;;;;;6.46;100.00;93905.72;5027165;28;20049;-69
2022/04/07 08:26:03;;;;;;;1.63;0.50;;;;;;;6.45;100.00;93901.50;5024886;28;20155;-70
2022/04/07 08:28:28;;;;;;;9.95;0.65;;;;;;;6.43;100.00;93910.53;5027094;28;20064;-70
2022/04/07 08:30:54;;;;;;;1.30;0.50;;;;;;;6.48;100.00;93906.25;5028614;28;20052;-68
2022/04/07 08:33:19;;;;;;;1.88;0.60;;;;;;;6.53;100.00;93900.88;5029893;28;20041;-69
2022/04/07 08:35:45;;;;;;;0.63;0.40;;;;;;;6.61;100.00;93879.75;5027137;28;20103;-68
2022/04/07 08:38:14;;;;;;;0.55;0.35;;;;;;;6.63;100.00;93871.53;5025844;28;20062;-69
2022/04/07 08:40:41;;;;;;;1.50;0.50;;;;;;;6.74;100.00;93885.47;5026601;28;20033;-69
2022/04/07 08:43:08;;;;;;;1.17;0.50;;;;;;;6.76;100.00;93881.44;5025947;28;20120;-69
2022/04/07 08:45:36;;;;;;;1.15;0.50;;;;;;;6.87;100.00;93893.53;5023522;28;20095;-69
2022/04/07 08:48:02;;;;;;;0.98;0.45;;;;;;;6.84;100.00;93894.06;5027270;28;20073;-69
2022/04/07 08:50:33;;;;;;;1.65;0.63;;;;;;;6.88;100.00;93887.13;5024912;28;20053;-69
2022/04/07 08:52:59;;;;;;;1.00;0.68;;;;;;;6.93;100.00;93873.78;5026221;28;20041;-68
2022/04/07 08:55:25;;;;;;;2.50;0.60;;;;;;;7.04;100.00;93876.28;5026150;28;20041;-69
2022/04/07 08:57:50;;;;;;;3.38;0.98;;;;;;;7.06;100.00;93858.94;5026726;28;20495;-69
2022/04/07 09:00:16;;;;;;;1.20;0.57;;;;;;;7.08;100.00;93851.50;5025168;28;20515;-70
2022/04/07 09:02:43;;;;;;;0.65;0.40;;;;;;;7.12;100.00;93855.13;5026724;28;20102;-70
2022/04/07 09:05:12;;;;;;;1.10;0.50;;;;;;;7.17;100.00;93838.31;5024949;28;20111;-69
2022/04/07 09:07:38;;;;;;;1.08;0.43;;;;;;;7.12;100.00;93833.06;5028375;28;20049;-70
2022/04/07 09:10:05;;;;;;;1.55;0.47;;;;;;;6.97;100.00;93858.03;5025483;28;20044;-69
2022/04/07 09:12:34;;;;;;;0.55;0.35;;;;;;;6.94;100.00;93827.50;5023190;28;20041;-69
2022/04/07 09:15:00;;;;;;;0.82;0.40;;;;;;;7.00;100.00;93841.47;5026813;28;20048;-68
2022/04/07 09:17:26;;;;;;;1.08;0.40;;;;;;;7.16;100.00;93818.09;5026110;28;20345;-70
2022/04/07 09:19:53;;;;;;;1.70;0.50;;;;;;;7.31;100.00;93847.13;5025478;28;20036;-70
2022/04/07 09:22:30;;;;;;;0.70;0.30;;;;;;;7.39;100.00;93819.88;5027601;28;20033;-70
2022/04/07 09:24:55;;;;;;;2.72;0.63;;;;;;;7.49;100.00;93822.34;5025250;28;20041;-69
2022/04/07 09:27:21;;;;;;;1.17;0.45;;;;;;;7.55;100.00;93793.78;5024955;28;20554;-70
2022/04/07 09:29:47;;;;;;;0.75;0.45;;;;;;;7.58;100.00;93819.00;5023845;28;20045;-70
2022/04/07 09:32:30;;;;;;;2.45;0.60;;;;;;;7.69;100.00;93799.09;5023918;28;20049;-69
2022/04/07 09:34:58;;;;;;;1.25;0.50;;;;;;;7.59;100.00;93818.72;5027618;28;20553;-69
2022/04/07 09:37:29;;;;;;;1.02;0.47;;;;;;;7.88;100.00;93796.38;5025793;28;20363;-69
2022/04/07 09:40:07;;;;;;;0.73;0.40;;;;;;;8.31;100.00;93773.63;5023238;28;20072;-69
2022/04/07 09:42:33;;;;;;;1.02;0.50;;;;;;;8.11;100.00;93758.09;5023752;28;20048;-70
2022/04/07 09:45:01;;;;;;;1.23;0.43;;;;;;;8.21;100.00;93736.56;5023248;28;20463;-69
2022/04/07 09:47:45;;;;;;;0.98;0.50;;;;;;;8.27;100.00;93771.88;5024962;28;20136;-70
2022/04/07 09:50:28;;;;;;;2.45;0.52;;;;;;;8.32;100.00;93747.78;5024738;28;20075;-70
2022/04/07 09:53:05;;;;;;;2.40;0.73;;;;;;;8.35;100.00;93736.56;5026063;28;20064;-69
2022/04/07 09:55:36;;;;;;;1.33;0.60;;;;;;;8.26;100.00;93730.34;5023239;28;20062;-70
2022/04/07 09:58:04;;;;;;;1.38;0.63;;;;;;;8.28;100.00;93717.50;5025078;28;20053;-71
2022/04/07 10:00:30;;;;;;;1.75;0.70;;;;;;;8.33;100.00;93728.84;5023143;28;20416;-69
2022/04/07 10:02:57;;;;;;;1.92;0.60;;;;;;;8.37;100.00;93729.06;5021905;28;20107;-69
2022/04/07 10:05:23;;;;;;;1.35;0.60;;;;;;;8.43;100.00;93727.88;5025941;28;20336;-69
2022/04/07 10:07:49;;;;;;;2.50;0.70;;;;;;;8.41;100.00;93734.59;5035249;28;20128;-69
2022/04/07 10:10:14;;;;;;;2.70;0.60;;;;;;;8.42;100.00;93689.00;5029071;28;20037;-69
2022/04/07 10:12:40;;;;;;;1.08;0.50;;;;;;;8.35;100.00;93691.28;5045194;28;20083;-70
2022/04/07 10:15:07;;;;;;;1.73;0.73;;;;;;;8.42;100.00;93696.19;5028570;28;20045;-69
2022/04/07 10:17:37;;;;;;;0.93;0.50;;;;;;;8.44;100.00;93675.34;5029096;28;20672;-69
2022/04/07 10:20:07;;;;;;;1.80;0.70;;;;;;;8.30;100.00;93700.13;5027234;28;20485;-69
2022/04/07 10:22:50;;;;;;;4.85;0.88;;;;;;;8.29;100.00;93693.22;5028657;28;20090;-69
2022/04/07 10:25:19;;;;;;;5.55;1.65;;;;;;;8.41;100.00;93666.09;5029141;28;20116;-69
2022/04/07 10:27:50;;;;;;;4.03;1.38;;;;;;;8.42;100.00;93654.34;4331543;28;10000181;-69
2022/04/07 10:30:16;;;;;;;5.75;1.23;;;;;;;8.39;100.00;93646.94;5022610;28;20048;-69
2022/04/07 10:32:47;;;;;;;3.50;1.48;;;;;;;8.35;100.00;93644.09;4996128;28;20914;-69
2022/04/07 10:35:36;;;;;;;4.17;1.33;;;;;;;8.01;100.00;93643.78;5027445;28;20041;-70
2022/04/07 10:38:09;;;;;;;4.07;1.27;;;;;;;7.81;100.00;93671.63;5030146;28;20463;-71
2022/04/07 10:40:49;;;;;;;8.15;3.05;;;;;;;7.80;100.00;93640.78;5022225;28;20111;-70
2022/04/07 10:43:14;;;;;;;4.05;0.93;;;;;;;7.97;100.00;93656.91;5026492;28;20423;-69
2022/04/07 10:45:42;;;;;;;3.33;1.48;;;;;;;8.02;100.00;93622.19;5025770;28;20041;-70
2022/04/07 10:48:24;;;;;;;1.77;0.68;;;;;;;8.14;100.00;93615.53;5023613;28;20037;-71
2022/04/07 10:50:54;;;;;;;2.38;0.88;;;;;;;8.22;100.00;93601.50;5023531;28;20124;-70
2022/04/07 10:53:22;;;;;;;2.70;0.93;;;;;;;8.14;100.00;93602.22;5025697;28;20217;-70
2022/04/07 10:56:07;;;;;;;3.13;0.80;;;;;;;8.00;100.00;93613.69;5025472;28;20045;-70
2022/04/07 10:58:54;;;;;;;3.17;1.60;;;;;;;7.89;100.00;93607.03;5025481;28;20468;-69
2022/04/07 11:01:29;;;;;;;3.97;1.25;;;;;;;7.83;100.00;93608.22;5026865;28;20148;-70
2022/04/07 11:04:16;;;;;;;2.30;1.23;;;;;;;7.80;100.00;93598.97;5024736;28;20241;-69
2022/04/07 11:09:45;;;;;;;4.90;1.15;;;;;;;8.01;100.00;93609.16;5021838;28;20633;-69
2022/04/07 11:12:16;;;;;;;4.60;1.60;;;;;;;8.03;100.00;93602.47;5024927;28;20598;-69
2022/04/07 11:14:43;;;;;;;1.58;0.70;;;;;;;8.02;100.00;93587.56;5023388;28;20064;-69
2022/04/07 11:17:13;;;;;;;2.55;0.93;;;;;;;7.96;100.00;93599.44;5026029;28;20059;-69
2022/04/07 11:20:05;;;;;;;1.97;0.83;;;;;;;7.90;100.00;93621.91;5023702;28;20041;-69
2022/04/07 11:22:49;;;;;;;2.28;1.10;;;;;;;7.69;100.00;93610.91;5024996;28;20041;-69
2022/04/07 11:25:22;;;;;;;1.00;0.50;;;;;;;7.68;100.00;93597.91;5025563;28;20114;-70
2022/04/07 11:28:22;;;;;;;21.58;1.10;;;;;;;7.69;100.00;93600.25;5022490;28;20386;-69
2022/04/07 11:30:50;;;;;;;1.33;0.63;;;;;;;7.68;100.00;93589.94;5021648;28;20041;-69
2022/04/07 11:33:18;;;;;;;2.33;0.80;;;;;;;7.73;100.00;93592.50;5001008;28;20385;-68
2022/04/07 11:36:04;;;;;;;0.70;0.40;;;;;;;7.70;100.00;93631.13;5026966;28;20041;-69
2022/04/07 11:38:37;;;;;;;0.30;0.25;;;;;;;7.73;100.00;93619.09;5025292;28;20049;-69